createdAt,value
2023-06-07T00:00:44.050Z,100
2023-06-07T00:01:44.133Z,100
2023-06-07T00:02:45.034Z,100
2023-06-07T00:03:44.310Z,100
2023-06-07T00:04:44.083Z,100
2023-06-07T00:05:44.027Z,100
2023-06-07T00:06:44.067Z,100
2023-06-07T00:07:44.074Z,100
2023-06-07T00:08:44.397Z,100
2023-06-07T00:09:44.132Z,100
2023-06-07T00:10:44.123Z,100
2023-06-07T00:11:44.172Z,100
2023-06-07T00:12:44.188Z,100
2023-06-07T00:13:44.167Z,100
2023-06-07T00:14:44.181Z,100
2023-06-07T00:15:44.178Z,100
2023-06-07T00:16:44.234Z,100
2023-06-07T00:17:44.800Z,100
2023-06-07T00:18:44.234Z,100
2023-06-07T00:19:44.281Z,100
2023-06-07T00:20:44.253Z,100
2023-06-07T00:21:44.286Z,100
2023-06-07T00:22:49.453Z,100
2023-06-07T00:23:46.549Z,100
2023-06-07T00:24:46.203Z,100
2023-06-07T00:25:46.211Z,100
2023-06-07T00:26:46.579Z,100
2023-06-07T00:27:46.215Z,100
2023-06-07T00:28:46.238Z,100
2023-06-07T00:29:46.236Z,100
2023-06-07T00:30:46.295Z,100
2023-06-07T00:31:46.243Z,100
2023-06-07T00:32:46.311Z,100
2023-06-07T00:33:46.942Z,100
2023-06-07T00:34:46.538Z,100
2023-06-07T00:35:46.487Z,100
2023-06-07T00:36:46.535Z,100
2023-06-07T00:37:46.323Z,100
2023-06-07T00:38:46.338Z,100
2023-06-07T00:39:46.414Z,100
2023-06-07T00:40:46.399Z,100
2023-06-07T00:41:46.552Z,100
2023-06-07T00:42:46.411Z,100
2023-06-07T00:43:46.429Z,100
2023-06-07T00:44:46.565Z,100
2023-06-07T00:45:46.451Z,100
2023-06-07T00:46:46.518Z,100
2023-06-07T00:47:46.920Z,100
2023-06-07T00:48:48.255Z,100
2023-06-07T00:49:46.601Z,100
2023-06-07T00:50:46.853Z,100
2023-06-07T00:51:47.263Z,100
2023-06-07T00:52:46.743Z,100
2023-06-07T00:53:48.174Z,100
2023-06-07T00:54:46.758Z,100
2023-06-07T00:55:46.846Z,100
2023-06-07T00:56:47.266Z,100
2023-06-07T00:57:46.860Z,100
2023-06-07T00:58:47.298Z,100
2023-06-07T00:59:46.661Z,100
2023-06-07T01:00:47.498Z,100
2023-06-07T01:01:49.004Z,100
2023-06-07T01:02:46.814Z,100
2023-06-07T01:03:46.962Z,100
2023-06-07T01:04:47.057Z,100
2023-06-07T01:05:46.936Z,100
2023-06-07T01:06:46.746Z,100
2023-06-07T01:07:48.055Z,100
2023-06-07T01:08:46.739Z,100
2023-06-07T01:09:46.808Z,100
2023-06-07T01:10:47.894Z,100
2023-06-07T01:11:49.245Z,100
2023-06-07T01:12:48.057Z,100
2023-06-07T01:13:46.785Z,100
2023-06-07T01:14:48.416Z,100
2023-06-07T01:15:47.503Z,100
2023-06-07T01:16:49.130Z,100
2023-06-07T01:17:47.795Z,100
2023-06-07T01:18:47.098Z,100
2023-06-07T01:19:47.340Z,100
2023-06-07T01:20:54.498Z,100
2023-06-07T01:21:52.590Z,100
2023-06-07T01:22:54.433Z,100
2023-06-07T01:23:51.569Z,100
2023-06-07T01:24:51.440Z,100
2023-06-07T01:25:51.477Z,100
2023-06-07T01:26:51.896Z,100
2023-06-07T01:27:52.093Z,100
2023-06-07T01:28:51.505Z,100
2023-06-07T01:29:51.496Z,100
2023-06-07T01:30:52.590Z,100
2023-06-07T01:31:52.274Z,100
2023-06-07T01:32:52.480Z,100
2023-06-07T01:33:52.393Z,100
2023-06-07T01:34:52.049Z,100
2023-06-07T01:35:52.555Z,100
2023-06-07T01:36:52.642Z,100
2023-06-07T01:37:52.680Z,100
2023-06-07T01:38:52.279Z,100
2023-06-07T01:39:53.613Z,100
2023-06-07T01:40:52.701Z,100
2023-06-07T01:41:52.598Z,100
2023-06-07T01:42:53.150Z,100
2023-06-07T01:43:52.193Z,100
2023-06-07T01:44:53.744Z,100
2023-06-07T01:45:53.489Z,100
2023-06-07T01:46:52.012Z,100
2023-06-07T01:47:52.271Z,100
2023-06-07T01:48:52.180Z,100
2023-06-07T01:49:52.023Z,100
2023-06-07T01:50:52.013Z,100
2023-06-07T01:51:52.031Z,100
2023-06-07T01:52:52.045Z,100
2023-06-07T01:53:52.258Z,100
2023-06-07T01:54:52.279Z,100
2023-06-07T01:55:55.651Z,100
2023-06-07T02:00:10.740Z,100
2023-06-07T02:01:15.055Z,100
2023-06-07T02:04:19.103Z,100
2023-06-07T02:06:21.530Z,100
2023-06-07T02:07:21.221Z,100
2023-06-07T02:09:23.891Z,100
2023-06-07T02:10:22.163Z,100
2023-06-07T02:11:23.328Z,100
2023-06-07T02:12:21.768Z,100
2023-06-07T02:13:21.644Z,100
2023-06-07T02:14:21.624Z,100
2023-06-07T02:15:22.144Z,100
2023-06-07T02:17:25.963Z,100
2023-06-07T02:18:26.122Z,100
2023-06-07T02:19:25.834Z,100
2023-06-07T02:20:26.847Z,100
2023-06-07T02:21:25.863Z,100
2023-06-07T02:22:25.880Z,100
2023-06-07T02:23:25.889Z,100
2023-06-07T02:24:25.888Z,100
2023-06-07T02:25:26.268Z,100
2023-06-07T02:26:26.405Z,100
2023-06-07T02:27:26.456Z,100
2023-06-07T02:28:26.431Z,100
2023-06-07T02:29:26.495Z,100
2023-06-07T02:30:26.707Z,100
2023-06-07T02:31:26.973Z,100
2023-06-07T02:32:26.509Z,100
2023-06-07T02:33:26.532Z,100
2023-06-07T02:34:26.508Z,100
2023-06-07T02:35:26.508Z,100
2023-06-07T02:36:26.578Z,100
2023-06-07T02:37:26.545Z,100
2023-06-07T02:38:26.555Z,100
2023-06-07T02:39:26.573Z,100
2023-06-07T02:40:26.584Z,100
2023-06-07T02:41:26.617Z,100
2023-06-07T02:42:26.635Z,100
2023-06-07T02:43:26.613Z,100
2023-06-07T02:44:26.646Z,100
2023-06-07T02:45:26.673Z,100
2023-06-07T02:46:26.995Z,100
2023-06-07T02:47:26.818Z,100
2023-06-07T02:48:26.712Z,100
2023-06-07T02:49:26.693Z,100
2023-06-07T02:50:26.730Z,100
2023-06-07T02:51:26.737Z,100
2023-06-07T02:52:27.029Z,100
2023-06-07T02:53:26.774Z,100
2023-06-07T02:54:26.784Z,100
2023-06-07T02:55:26.787Z,100
2023-06-07T02:56:26.826Z,100
2023-06-07T02:57:26.886Z,100
2023-06-07T02:58:26.836Z,100
2023-06-07T02:59:26.859Z,100
2023-06-07T03:00:26.853Z,100
2023-06-07T03:01:26.944Z,100
2023-06-07T03:02:26.970Z,100
2023-06-07T03:03:26.970Z,100
2023-06-07T03:04:26.913Z,100
2023-06-07T03:05:27.079Z,100
2023-06-07T03:06:27.562Z,100
2023-06-07T03:07:26.953Z,100
2023-06-07T03:08:26.968Z,100
2023-06-07T03:09:26.985Z,100
2023-06-07T03:10:27.238Z,100
2023-06-07T03:11:26.989Z,100
2023-06-07T03:12:27.022Z,100
2023-06-07T03:13:27.012Z,100
2023-06-07T03:14:27.209Z,100
2023-06-07T03:15:27.108Z,100
2023-06-07T03:16:27.169Z,100
2023-06-07T03:17:27.120Z,100
2023-06-07T03:18:27.380Z,100
2023-06-07T03:19:27.143Z,100
2023-06-07T03:20:27.274Z,100
2023-06-07T03:21:27.158Z,100
2023-06-07T03:22:27.209Z,100
2023-06-07T03:23:27.201Z,100
2023-06-07T03:24:27.379Z,100
2023-06-07T03:25:27.211Z,100
2023-06-07T03:26:27.225Z,100
2023-06-07T03:27:27.242Z,100
2023-06-07T03:28:27.251Z,100
2023-06-07T03:29:27.501Z,100
2023-06-07T03:30:27.422Z,100
2023-06-07T03:31:27.466Z,100
2023-06-07T03:32:27.323Z,100
2023-06-07T03:33:27.305Z,100
2023-06-07T03:34:27.349Z,100
2023-06-07T03:35:27.347Z,100
2023-06-07T03:36:27.577Z,100
2023-06-07T03:37:27.345Z,100
2023-06-07T03:38:27.374Z,100
2023-06-07T03:39:27.388Z,100
2023-06-07T03:40:27.416Z,100
2023-06-07T03:41:27.421Z,100
2023-06-07T03:42:27.635Z,100
2023-06-07T03:43:27.441Z,100
2023-06-07T03:44:27.458Z,100
2023-06-07T03:45:27.558Z,100
2023-06-07T03:46:27.461Z,100
2023-06-07T03:47:27.524Z,100
2023-06-07T03:48:27.615Z,100
2023-06-07T03:49:27.531Z,100
2023-06-07T03:50:27.550Z,100
2023-06-07T03:51:27.533Z,100
2023-06-07T03:52:27.561Z,100
2023-06-07T03:53:27.683Z,100
2023-06-07T03:54:27.642Z,100
2023-06-07T03:55:28.118Z,100
2023-06-07T03:56:27.625Z,100
2023-06-07T03:57:27.618Z,100
2023-06-07T03:58:27.655Z,100
2023-06-07T03:59:27.706Z,100
2023-06-07T04:00:27.665Z,100
2023-06-07T04:01:27.691Z,100
2023-06-07T04:02:27.746Z,100
2023-06-07T04:03:27.770Z,100
2023-06-07T04:04:27.779Z,100
2023-06-07T04:05:27.756Z,100
2023-06-07T04:06:27.752Z,100
2023-06-07T04:07:27.748Z,100
2023-06-07T04:08:27.848Z,100
2023-06-07T04:09:27.841Z,100
2023-06-07T04:10:27.861Z,100
2023-06-07T04:11:27.811Z,100
2023-06-07T04:12:27.827Z,100
2023-06-07T04:13:27.838Z,100
2023-06-07T04:14:28.130Z,100
2023-06-07T04:15:28.152Z,100
2023-06-07T04:16:27.902Z,100
2023-06-07T04:17:28.034Z,100
2023-06-07T04:18:28.199Z,100
2023-06-07T04:19:27.937Z,100
2023-06-07T04:20:28.526Z,100
2023-06-07T04:21:27.967Z,100
2023-06-07T04:22:27.965Z,100
2023-06-07T04:23:28.027Z,100
2023-06-07T04:24:27.984Z,100
2023-06-07T04:25:30.723Z,100
2023-06-07T04:26:28.288Z,100
2023-06-07T04:27:28.022Z,100
2023-06-07T04:28:28.039Z,100
2023-06-07T04:29:28.035Z,100
2023-06-07T04:30:28.412Z,100
2023-06-07T04:31:28.160Z,100
2023-06-07T04:32:28.796Z,100
2023-06-07T04:33:28.106Z,100
2023-06-07T04:34:28.140Z,100
2023-06-07T04:35:28.138Z,100
2023-06-07T04:36:28.731Z,100
2023-06-07T04:37:28.175Z,100
2023-06-07T04:38:28.203Z,100
2023-06-07T04:39:28.180Z,100
2023-06-07T04:40:31.381Z,100
2023-06-07T04:41:28.215Z,100
2023-06-07T04:42:28.588Z,100
2023-06-07T04:43:28.253Z,100
2023-06-07T04:44:28.287Z,100
2023-06-07T04:45:28.310Z,100
2023-06-07T04:46:28.497Z,100
2023-06-07T04:47:28.383Z,100
2023-06-07T04:48:28.363Z,100
2023-06-07T04:49:28.352Z,100
2023-06-07T04:50:28.681Z,100
2023-06-07T04:51:28.389Z,100
2023-06-07T04:52:29.685Z,100
2023-06-07T04:53:28.402Z,100
2023-06-07T04:54:29.003Z,100
2023-06-07T04:55:31.924Z,100
2023-06-07T04:56:28.588Z,100
2023-06-07T04:57:28.648Z,100
2023-06-07T04:58:28.708Z,100
2023-06-07T04:59:28.515Z,100
2023-06-07T05:00:28.523Z,100
2023-06-07T05:01:28.569Z,100
2023-06-07T05:02:28.588Z,100
2023-06-07T05:03:28.580Z,100
2023-06-07T05:04:28.776Z,100
2023-06-07T05:05:28.642Z,100
2023-06-07T05:06:29.072Z,100
2023-06-07T05:07:28.635Z,100
2023-06-07T05:08:28.686Z,100
2023-06-07T05:09:30.749Z,100
2023-06-07T05:10:28.687Z,100
2023-06-07T05:11:28.706Z,100
2023-06-07T05:12:28.745Z,100
2023-06-07T05:13:28.763Z,100
2023-06-07T05:14:28.766Z,100
2023-06-07T05:15:28.811Z,100
2023-06-07T05:16:28.904Z,100
2023-06-07T05:17:29.136Z,100
2023-06-07T05:18:29.136Z,100
2023-06-07T05:19:28.842Z,100
2023-06-07T05:20:29.373Z,100
2023-06-07T05:21:28.878Z,100
2023-06-07T05:22:29.110Z,100
2023-06-07T05:23:28.913Z,100
2023-06-07T05:24:28.963Z,100
2023-06-07T05:25:29.143Z,100
2023-06-07T05:26:28.941Z,100
2023-06-07T05:27:28.951Z,100
2023-06-07T05:28:29.004Z,100
2023-06-07T05:29:28.992Z,100
2023-06-07T05:30:29.049Z,100
2023-06-07T05:31:29.141Z,100
2023-06-07T05:32:29.062Z,100
2023-06-07T05:33:29.077Z,100
2023-06-07T05:34:29.067Z,100
2023-06-07T05:35:29.091Z,100
2023-06-07T05:36:29.081Z,100
2023-06-07T05:37:29.708Z,100
2023-06-07T05:38:29.166Z,100
2023-06-07T05:39:29.181Z,100
2023-06-07T05:40:29.217Z,100
2023-06-07T05:41:29.238Z,100
2023-06-07T05:42:29.223Z,100
2023-06-07T05:43:29.292Z,100
2023-06-07T05:44:29.242Z,100
2023-06-07T05:45:29.265Z,100
2023-06-07T05:46:29.312Z,100
2023-06-07T05:47:29.357Z,100
2023-06-07T05:48:29.368Z,100
2023-06-07T05:49:29.350Z,100
2023-06-07T05:50:29.836Z,100
2023-06-07T05:51:29.384Z,100
2023-06-07T05:52:29.364Z,100
2023-06-07T05:53:29.426Z,100
2023-06-07T05:54:29.419Z,100
2023-06-07T05:55:29.657Z,100
2023-06-07T05:56:29.423Z,100
2023-06-07T05:57:29.836Z,100
2023-06-07T05:58:29.606Z,100
2023-06-07T05:59:29.496Z,100
2023-06-07T06:00:29.632Z,100
2023-06-07T06:01:29.583Z,100
2023-06-07T06:02:29.782Z,100
2023-06-07T06:03:29.565Z,100
2023-06-07T06:04:29.754Z,100
2023-06-07T06:05:30.127Z,100
2023-06-07T06:06:29.655Z,100
2023-06-07T06:07:29.649Z,100
2023-06-07T06:08:29.668Z,100
2023-06-07T06:09:30.189Z,100
2023-06-07T06:10:30.052Z,100
2023-06-07T06:11:29.698Z,100
2023-06-07T06:12:29.724Z,100
2023-06-07T06:13:29.724Z,100
2023-06-07T06:14:29.820Z,100
2023-06-07T06:15:29.803Z,100
2023-06-07T06:16:29.836Z,100
2023-06-07T06:17:29.819Z,100
2023-06-07T06:18:30.522Z,100
2023-06-07T06:19:30.029Z,100
2023-06-07T06:20:29.892Z,100
2023-06-07T06:21:29.859Z,100
2023-06-07T06:22:29.887Z,100
2023-06-07T06:23:29.934Z,100
2023-06-07T06:24:29.884Z,100
2023-06-07T06:25:29.941Z,100
2023-06-07T06:26:29.924Z,100
2023-06-07T06:27:29.996Z,100
2023-06-07T06:28:29.954Z,100
2023-06-07T06:29:29.969Z,100
2023-06-07T06:30:30.008Z,100
2023-06-07T06:31:30.141Z,100
2023-06-07T06:32:30.538Z,100
2023-06-07T06:33:30.567Z,100
2023-06-07T06:34:30.568Z,100
2023-06-07T06:35:31.308Z,100
2023-06-07T06:36:30.600Z,100
2023-06-07T06:37:30.585Z,100
2023-06-07T06:38:30.657Z,100
2023-06-07T06:39:30.634Z,100
2023-06-07T06:40:30.677Z,100
2023-06-07T06:41:30.701Z,100
2023-06-07T06:42:30.701Z,100
2023-06-07T06:43:30.951Z,100
2023-06-07T06:44:30.726Z,100
2023-06-07T06:45:30.751Z,100
2023-06-07T06:46:30.872Z,100
2023-06-07T06:47:31.052Z,100
2023-06-07T06:48:30.807Z,100
2023-06-07T06:49:30.817Z,100
2023-06-07T06:50:33.611Z,100
2023-06-07T06:51:30.862Z,100
2023-06-07T06:52:30.898Z,100
2023-06-07T06:53:30.979Z,100
2023-06-07T06:54:31.107Z,100
2023-06-07T06:55:31.372Z,100
2023-06-07T06:56:30.947Z,100
2023-06-07T06:57:30.968Z,100
2023-06-07T06:58:30.978Z,100
2023-06-07T06:59:30.978Z,100
2023-06-07T07:00:30.973Z,100
2023-06-07T07:02:33.339Z,100
2023-06-07T07:03:33.322Z,100
2023-06-07T07:04:33.388Z,100
2023-06-07T07:05:33.270Z,100
2023-06-07T07:06:33.634Z,100
2023-06-07T07:07:33.789Z,100
2023-06-07T07:08:33.319Z,100
2023-06-07T07:09:33.503Z,100
2023-06-07T07:10:33.725Z,100
2023-06-07T07:11:33.307Z,100
2023-06-07T07:12:33.315Z,100
2023-06-07T07:13:33.421Z,100
2023-06-07T07:14:33.426Z,100
2023-06-07T07:15:33.456Z,100
2023-06-07T07:16:35.469Z,100
2023-06-07T07:17:33.874Z,100
2023-06-07T07:18:33.990Z,100
2023-06-07T07:19:34.430Z,100
2023-06-07T07:20:34.235Z,100
2023-06-07T07:21:33.918Z,100
2023-06-07T07:22:33.934Z,100
2023-06-07T07:23:34.133Z,100
2023-06-07T07:24:33.937Z,100
2023-06-07T07:25:34.258Z,100
2023-06-07T07:26:33.948Z,100
2023-06-07T07:27:34.205Z,100
2023-06-07T07:28:34.469Z,100
2023-06-07T07:29:34.369Z,100
2023-06-07T07:30:34.153Z,100
2023-06-07T07:31:34.407Z,100
2023-06-07T07:32:34.270Z,100
2023-06-07T07:33:34.067Z,100
2023-06-07T07:34:34.171Z,100
2023-06-07T07:35:34.113Z,100
2023-06-07T07:36:34.087Z,100
2023-06-07T07:37:34.109Z,100
2023-06-07T07:38:34.254Z,100
2023-06-07T07:39:34.134Z,100
2023-06-07T07:40:38.570Z,100
2023-06-07T07:41:35.567Z,100
2023-06-07T07:42:35.791Z,100
2023-06-07T07:43:37.909Z,100
2023-06-07T07:44:35.477Z,100
2023-06-07T07:45:35.477Z,100
2023-06-07T07:46:36.137Z,100
2023-06-07T07:47:35.527Z,100
2023-06-07T07:48:35.958Z,100
2023-06-07T07:49:36.722Z,100
2023-06-07T07:50:35.533Z,100
2023-06-07T07:51:35.560Z,100
2023-06-07T07:52:35.608Z,100
2023-06-07T07:53:35.632Z,100
2023-06-07T07:54:35.719Z,100
2023-06-07T07:55:35.628Z,100
2023-06-07T07:56:35.723Z,100
2023-06-07T07:57:35.775Z,100
2023-06-07T07:58:36.305Z,100
2023-06-07T07:59:35.743Z,100
2023-06-07T08:00:35.730Z,100
2023-06-07T08:01:35.882Z,100
2023-06-07T08:02:35.781Z,100
2023-06-07T08:03:35.992Z,100
2023-06-07T08:04:36.117Z,100
2023-06-07T08:05:35.812Z,100
2023-06-07T08:06:36.344Z,100
2023-06-07T08:07:35.844Z,100
2023-06-07T08:08:35.852Z,100
2023-06-07T08:09:35.865Z,100
2023-06-07T08:10:35.939Z,100
2023-06-07T08:11:35.878Z,100
2023-06-07T08:12:36.095Z,100
2023-06-07T08:13:35.912Z,100
2023-06-07T08:14:36.001Z,100
2023-06-07T08:15:35.956Z,100
2023-06-07T08:16:36.039Z,100
2023-06-07T08:17:36.029Z,100
2023-06-07T08:18:36.432Z,100
2023-06-07T08:19:36.082Z,100
2023-06-07T08:20:36.656Z,100
2023-06-07T08:21:36.159Z,100
2023-06-07T08:22:36.142Z,100
2023-06-07T08:23:36.295Z,100
2023-06-07T08:24:36.430Z,100
2023-06-07T08:25:36.079Z,100
2023-06-07T08:26:36.174Z,100
2023-06-07T08:27:36.599Z,100
2023-06-07T08:28:37.202Z,100
2023-06-07T08:29:36.182Z,100
2023-06-07T08:30:36.265Z,100
2023-06-07T08:31:36.230Z,100
2023-06-07T08:32:36.370Z,100
2023-06-07T08:33:36.236Z,100
2023-06-07T08:34:36.230Z,100
2023-06-07T08:35:36.506Z,100
2023-06-07T08:36:36.289Z,100
2023-06-07T08:37:36.306Z,100
2023-06-07T08:38:39.304Z,100
2023-06-07T08:39:36.354Z,100
2023-06-07T08:40:36.415Z,100
2023-06-07T08:41:36.399Z,100
2023-06-07T08:42:38.448Z,100
2023-06-07T08:43:36.794Z,100
2023-06-07T08:44:36.488Z,100
2023-06-07T08:45:38.383Z,100
2023-06-07T08:46:37.180Z,100
2023-06-07T08:47:36.921Z,100
2023-06-07T08:48:37.878Z,100
2023-06-07T08:49:36.953Z,100
2023-06-07T08:50:37.039Z,100
2023-06-07T08:51:36.797Z,100
2023-06-07T08:52:39.640Z,100
2023-06-07T08:53:47.536Z,100
2023-06-07T08:54:41.845Z,100
2023-06-07T08:55:39.789Z,100
2023-06-07T08:56:39.455Z,100
2023-06-07T08:57:39.782Z,100
2023-06-07T08:58:39.758Z,100
2023-06-07T08:59:39.480Z,100
2023-06-07T09:00:39.349Z,100
2023-06-07T09:01:39.822Z,100
2023-06-07T09:02:39.425Z,100
2023-06-07T09:03:40.103Z,100
2023-06-07T09:04:42.657Z,100
2023-06-07T09:05:39.382Z,100
2023-06-07T09:06:39.496Z,100
2023-06-07T09:07:39.432Z,100
2023-06-07T09:08:39.416Z,100
2023-06-07T09:09:42.882Z,100
2023-06-07T09:10:41.915Z,100
2023-06-07T09:11:39.863Z,100
2023-06-07T09:12:43.815Z,100
2023-06-07T09:13:40.628Z,100
2023-06-07T09:14:40.501Z,100
2023-06-07T09:15:42.168Z,100
2023-06-07T09:16:53.021Z,100
2023-06-07T09:17:54.823Z,100
2023-06-07T09:18:48.310Z,100
2023-06-07T09:19:46.972Z,100
2023-06-07T09:20:46.930Z,100
2023-06-07T09:21:47.021Z,100
2023-06-07T09:22:56.886Z,100
2023-06-07T09:23:49.320Z,100
2023-06-07T09:24:48.554Z,100
2023-06-07T09:25:54.396Z,100
2023-06-07T09:26:51.085Z,100
2023-06-07T09:27:51.091Z,100
2023-06-07T09:28:51.358Z,100
2023-06-07T09:29:51.133Z,100
2023-06-07T09:30:55.050Z,100
2023-06-07T09:31:52.038Z,100
2023-06-07T09:32:52.032Z,100
2023-06-07T09:33:51.949Z,100
2023-06-07T09:34:52.721Z,100
2023-06-07T09:36:04.560Z,100
2023-06-07T09:36:57.923Z,100
2023-06-07T09:37:56.368Z,100
2023-06-07T09:38:56.410Z,100
2023-06-07T09:40:07.483Z,100
2023-06-07T09:41:03.017Z,100
2023-06-07T09:42:00.171Z,100
2023-06-07T09:43:00.557Z,100
2023-06-07T09:44:00.232Z,100
2023-06-07T09:45:12.234Z,100
2023-06-07T09:46:04.046Z,100
2023-06-07T09:47:05.135Z,100
2023-06-07T09:48:05.759Z,100
2023-06-07T09:49:04.253Z,100
2023-06-07T09:50:13.993Z,100
2023-06-07T09:51:05.838Z,100
2023-06-07T09:52:12.007Z,100
2023-06-07T09:53:09.001Z,100
2023-06-07T09:54:08.996Z,100
2023-06-07T09:56:17.776Z,100
2023-06-07T09:58:23.316Z,100
2023-06-07T09:59:20.278Z,100
2023-06-07T10:00:20.075Z,100
2023-06-07T10:01:32.098Z,100
2023-06-07T10:02:28.255Z,100
2023-06-07T10:03:25.693Z,100
2023-06-07T10:04:25.348Z,100
2023-06-07T10:05:25.365Z,100
2023-06-07T10:06:25.283Z,100
2023-06-07T10:07:26.941Z,100
2023-06-07T10:08:25.280Z,100
2023-06-07T10:09:26.088Z,100
2023-06-07T10:10:25.388Z,100
2023-06-07T10:11:25.597Z,100
2023-06-07T10:12:28.102Z,100
2023-06-07T10:13:25.373Z,100
2023-06-07T10:14:29.250Z,100
2023-06-07T10:15:27.221Z,100
2023-06-07T10:16:29.071Z,100
2023-06-07T10:17:29.247Z,100
2023-06-07T10:18:26.685Z,100
2023-06-07T10:19:35.986Z,100
2023-06-07T10:20:29.425Z,100
2023-06-07T10:21:30.559Z,100
2023-06-07T10:22:31.430Z,100
2023-06-07T10:23:32.826Z,100
2023-06-07T10:24:36.492Z,100
2023-06-07T10:25:42.334Z,100
2023-06-07T10:28:40.077Z,100
2023-06-07T10:29:42.552Z,100
2023-06-07T10:30:41.442Z,100
2023-06-07T10:32:43.467Z,100
2023-06-07T10:33:41.927Z,100
2023-06-07T10:34:44.016Z,100
2023-06-07T10:35:42.087Z,100
2023-06-07T10:36:42.379Z,100
2023-06-07T10:37:43.320Z,100
2023-06-07T10:38:42.306Z,100
2023-06-07T10:39:42.115Z,100
2023-06-07T10:40:42.772Z,100
2023-06-07T10:41:42.693Z,100
2023-06-07T10:42:42.443Z,100
2023-06-07T10:43:42.350Z,100
2023-06-07T10:44:42.622Z,100
2023-06-07T10:45:42.278Z,100
2023-06-07T10:46:42.805Z,100
2023-06-07T10:47:46.263Z,100
2023-06-07T10:48:42.735Z,100
2023-06-07T10:49:43.372Z,100
2023-06-07T10:50:46.157Z,100
2023-06-07T10:53:51.917Z,100
2023-06-07T10:54:48.404Z,100
2023-06-07T10:55:48.428Z,100
2023-06-07T10:56:52.046Z,100
2023-06-07T10:57:48.453Z,100
2023-06-07T10:58:48.410Z,100
2023-06-07T10:59:48.533Z,100
2023-06-07T11:00:49.012Z,100
2023-06-07T11:01:49.267Z,100
2023-06-07T11:02:48.514Z,100
2023-06-07T11:03:48.917Z,100
2023-06-07T11:04:58.226Z,100
2023-06-07T11:11:02.817Z,100
2023-06-07T11:12:02.053Z,100
2023-06-07T11:13:02.531Z,100
2023-06-07T11:18:15.477Z,100
2023-06-07T11:19:13.804Z,100
2023-06-07T11:20:12.977Z,100
2023-06-07T11:21:12.475Z,100
2023-06-07T11:24:21.539Z,100
2023-06-07T11:25:21.244Z,100
2023-06-07T11:26:21.467Z,100
2023-06-07T11:27:21.247Z,100
2023-06-07T11:28:28.301Z,100
2023-06-07T11:29:24.844Z,100
2023-06-07T11:30:25.052Z,100
2023-06-07T11:31:24.685Z,100
2023-06-07T11:32:25.200Z,100
2023-06-07T11:33:24.920Z,100
2023-06-07T11:34:25.525Z,100
2023-06-07T11:35:24.687Z,100
2023-06-07T11:36:24.703Z,100
2023-06-07T11:37:24.706Z,100
2023-06-07T11:38:25.509Z,100
2023-06-07T11:39:32.758Z,100
2023-06-07T11:40:29.018Z,100
2023-06-07T11:41:28.999Z,100
2023-06-07T11:42:30.020Z,100
2023-06-07T11:43:30.082Z,100
2023-06-07T11:44:29.942Z,100
2023-06-07T11:45:31.604Z,100
2023-06-07T11:46:32.861Z,100
2023-06-07T11:47:29.766Z,100
2023-06-07T11:48:30.723Z,100
2023-06-07T11:49:31.838Z,100
2023-06-07T11:50:29.793Z,100
2023-06-07T11:51:29.624Z,100
2023-06-07T11:52:29.691Z,100
2023-06-07T11:53:30.012Z,100
2023-06-07T11:54:29.714Z,100
2023-06-07T11:55:29.715Z,100
2023-06-07T11:56:29.912Z,100
2023-06-07T11:57:29.927Z,100
2023-06-07T11:58:29.950Z,100
2023-06-07T11:59:30.873Z,100
2023-06-07T12:00:33.598Z,100
2023-06-07T12:01:29.856Z,100
2023-06-07T12:02:30.248Z,100
2023-06-07T12:03:30.144Z,100
2023-06-07T12:04:30.099Z,100
2023-06-07T12:05:30.087Z,100
2023-06-07T12:06:29.909Z,100
2023-06-07T12:07:30.556Z,100
2023-06-07T12:08:30.344Z,100
2023-06-07T12:09:29.949Z,100
2023-06-07T12:10:30.120Z,100
2023-06-07T12:11:34.327Z,100
2023-06-07T12:12:30.567Z,100
2023-06-07T12:13:35.642Z,100
2023-06-07T12:14:32.407Z,100
2023-06-07T12:15:31.888Z,99.78
2023-06-07T12:16:31.907Z,100
2023-06-07T12:17:32.762Z,99.92
2023-06-07T12:18:32.792Z,99.83
2023-06-07T12:19:31.919Z,100
2023-06-07T12:20:32.118Z,98
2023-06-07T12:21:32.432Z,98.96
2023-06-07T12:22:31.981Z,99.3
2023-06-07T12:23:32.213Z,100
2023-06-07T12:24:31.979Z,100
2023-06-07T12:25:32.066Z,100
2023-06-07T12:26:36.321Z,100
2023-06-07T12:27:32.526Z,100
2023-06-07T12:28:32.579Z,100
2023-06-07T12:29:32.803Z,99.32
2023-06-07T12:30:36.234Z,100
2023-06-07T12:31:32.619Z,100
2023-06-07T12:32:32.637Z,100
2023-06-07T12:33:32.635Z,100
2023-06-07T12:34:32.853Z,100
2023-06-07T12:35:36.653Z,100
2023-06-07T12:36:34.634Z,100
2023-06-07T12:37:36.136Z,100
2023-06-07T12:38:32.928Z,100
2023-06-07T12:39:32.938Z,100
2023-06-07T12:40:33.372Z,100
2023-06-07T12:41:33.190Z,100
2023-06-07T12:42:33.245Z,100
2023-06-07T12:43:32.948Z,100
2023-06-07T12:44:33.342Z,100
2023-06-07T12:45:33.035Z,96.62
2023-06-07T12:46:33.162Z,95.4
2023-06-07T12:47:33.065Z,98.8
2023-06-07T12:48:33.043Z,96.2
2023-06-07T12:49:33.072Z,96.64
2023-06-07T12:50:33.112Z,99.7
2023-06-07T12:51:33.304Z,99.19
2023-06-07T12:52:33.120Z,97.04
2023-06-07T12:53:33.311Z,96.25
2023-06-07T12:54:33.156Z,94.23
2023-06-07T12:55:33.123Z,95.23
2023-06-07T12:56:33.139Z,97.29
2023-06-07T12:57:33.166Z,100
2023-06-07T12:58:33.181Z,100
2023-06-07T12:59:33.192Z,100
2023-06-07T13:00:33.200Z,98.42
2023-06-07T13:01:33.474Z,100
2023-06-07T13:02:33.314Z,98.93
2023-06-07T13:03:33.529Z,100
2023-06-07T13:04:33.292Z,98.62
2023-06-07T13:05:33.319Z,99.89
2023-06-07T13:06:33.315Z,100
2023-06-07T13:07:33.512Z,95.35
2023-06-07T13:08:33.345Z,92.4
2023-06-07T13:09:33.375Z,92.06
2023-06-07T13:10:33.367Z,95.13
2023-06-07T13:11:33.645Z,98.87
2023-06-07T13:12:33.615Z,99.61
2023-06-07T13:13:33.622Z,98.93
2023-06-07T13:14:33.418Z,93.34
2023-06-07T13:15:33.660Z,95
2023-06-07T13:16:33.478Z,95.21
2023-06-07T13:17:33.774Z,100
2023-06-07T13:18:33.505Z,100
2023-06-07T13:19:33.463Z,99.15
2023-06-07T13:20:33.803Z,100
2023-06-07T13:21:33.606Z,100
2023-06-07T13:22:33.490Z,100
2023-06-07T13:23:33.755Z,100
2023-06-07T13:24:33.675Z,99.93
2023-06-07T13:25:34.009Z,100
2023-06-07T13:26:33.701Z,100
2023-06-07T13:27:33.579Z,96.33
2023-06-07T13:28:33.616Z,94.17
2023-06-07T13:29:33.609Z,95.67
2023-06-07T13:30:33.616Z,95.22
2023-06-07T13:31:33.718Z,97.91
2023-06-07T13:32:33.721Z,93.79
2023-06-07T13:33:33.698Z,94.56
2023-06-07T13:34:33.643Z,97.3
2023-06-07T13:35:36.745Z,97.69
2023-06-07T13:36:34.157Z,93.74
2023-06-07T13:37:34.274Z,96.5
2023-06-07T13:38:34.858Z,98.57
2023-06-07T13:39:34.196Z,99.65
2023-06-07T13:40:34.190Z,99.29
2023-06-07T13:41:34.229Z,97.66
2023-06-07T13:42:34.388Z,95.07
2023-06-07T13:44:34.290Z,93.29
2023-06-07T13:45:34.479Z,92.55
2023-06-07T13:46:34.431Z,91.29
2023-06-07T13:47:34.577Z,92.89
2023-06-07T13:48:34.286Z,94.89
2023-06-07T13:49:34.360Z,93.67
2023-06-07T13:50:34.582Z,95.57
2023-06-07T13:51:34.364Z,95.29
2023-06-07T13:52:34.597Z,97.73
2023-06-07T13:53:34.389Z,97.66
2023-06-07T13:54:34.444Z,94.67
2023-06-07T13:55:34.387Z,95.12
2023-06-07T13:56:34.412Z,94.78
2023-06-07T13:57:34.437Z,94.43
2023-06-07T13:58:34.431Z,93.93
2023-06-07T13:59:34.457Z,92.31
2023-06-07T14:00:34.504Z,91.6
2023-06-07T14:01:34.814Z,92.97
2023-06-07T14:02:34.893Z,100
2023-06-07T14:03:35.360Z,100
2023-06-07T14:04:34.755Z,97.23
2023-06-07T14:05:34.906Z,96.93
2023-06-07T14:06:34.615Z,95.96
2023-06-07T14:07:34.564Z,100
2023-06-07T14:08:34.641Z,96.54
2023-06-07T14:09:34.620Z,95.54
2023-06-07T14:10:34.866Z,95.94
2023-06-07T14:11:34.630Z,98.43
2023-06-07T14:12:34.673Z,98.86